Details From LXGB - Gibraltar
To LEMG - Malaga
Flight Number -
Tags decoded
Created
Modified
Stats Distance 52 nm / 96 km
Max Altitude 0 ft / 0 m
Waypoints 2
Social Downloads 0
Likes 0
Share

Download

Looking for another format? Having issues loading an existing format? Contact us
Advertisement - Login to hide

Notes

Requested: LXGB LEMG

Route

LXGB LEMG

ID Type Via Altitude (ft/m) Position (lat/lon) Dist (leg/tot) Name
O LXGB APT - 0 / 0 36.15121 / -5.34966 - / 0 nm Gibraltar
O LEMG APT - 0 / 0 36.67978 / -4.49590 52 / 52 nm Malaga

Altitude Profile

Advertisement - Login to hide

LXGB

Details ICAO LXGB (GIB)
Name Gibraltar
Region Gibralter
Timezone Europe/Gibraltar (UTC+1.0)
Stats Elevation 15 ft / 5 m (AMSL)
Location 36.151200° -5.349850°
Runways 1
Magnetic Variation 0.786° W

METAR

LXGB 020850Z 25007KT CAVOK 16/11 Q1015 NOSIG

Decode

TAF

Not found

Departure Runways

ID Width Length Bearing (true/mag) Surface Threshold Overrun Markings Lighting
09 148 ft / 45 m 5,836 ft / 1,779 m 87.52° / 88.31° ASPHALT 476 ft / 145 m 0 ft / 0 m UK-PREC-APP EDGE THRESHOLD REIL-OMNI
27 148 ft / 45 m 5,836 ft / 1,779 m 267.53° / 268.32° ASPHALT 354 ft / 108 m 0 ft / 0 m UK-PREC-APP EDGE THRESHOLD REIL-OMNI

LEMG

Details ICAO LEMG (AGP)
Name Malaga–Costa del Sol
Region Spain
Timezone Europe/Madrid (UTC+1.0)
Stats Elevation 52 ft / 16 m (AMSL)
Location 36.679900° -4.495910°
Runways 2
Magnetic Variation 0.541° W

METAR

LEMG 020900Z 29010KT 260V320 CAVOK 15/10 Q1014 NOSIG

Decode

TAF

TAF LEMG 020500Z 0206/0306 30012KT CAVOK TX22/0214Z TN10/0306Z

Decode

Destination Runways

ID Width Length Bearing (true/mag) Surface Threshold Overrun Markings Lighting
12 148 ft / 45 m 9,999 ft / 3,048 m 117.68° / 118.22° ASPHALT 0 ft / 0 m 610 ft / 186 m PREC-APP CENTERLINE EDGE THRESHOLD ALSF-I TDZ REIL-OMNI
13 148 ft / 45 m 10,498 ft / 3,200 m 131.69° / 132.23° ASPHALT 0 ft / 0 m 0 ft / 0 m PREC-APP CENTERLINE EDGE THRESHOLD ALSF-I
30 148 ft / 45 m 9,999 ft / 3,048 m 297.70° / 298.24° ASPHALT 978 ft / 298 m 617 ft / 188 m VISUAL CENTERLINE EDGE THRESHOLD
31 148 ft / 45 m 10,498 ft / 3,200 m 311.70° / 312.25° ASPHALT 0 ft / 0 m 0 ft / 0 m PREC-APP CENTERLINE EDGE THRESHOLD ALSF-I

Approach Navaids

Runway Type Ident Frequency Range Bearing (true/mag) Slope Elevation
12 GS IMG 110.55 MHz 10 nm / 19 km 117.69° / 118.23 ° 3.00° 52 ft / 16 m (AMSL)
12 DME IMG 110.55 MHz 18 nm / 33 km - - 52 ft / 16 m (AMSL)
12 LOC-ILS IMG 110.55 MHz 18 nm / 33 km 117.69° / 118.23 ° - 52 ft / 16 m (AMSL)
13 GS GMM 109.50 MHz 10 nm / 19 km 131.70° / 132.24 ° 3.20° 52 ft / 16 m (AMSL)
13 DME GMM 109.50 MHz 18 nm / 33 km - - 69 ft / 21 m (AMSL)
13 LOC-ILS GMM 109.50 MHz 18 nm / 33 km 131.70° / 132.24 ° - 52 ft / 16 m (AMSL)
31 LOC-ILS GAA 109.90 MHz 18 nm / 33 km 311.70° / 312.24 ° - 52 ft / 16 m (AMSL)
31 GS GAA 109.90 MHz 10 nm / 19 km 311.70° / 312.24 ° 3.00° 52 ft / 16 m (AMSL)
31 DME GAA 109.90 MHz 18 nm / 33 km - - 56 ft / 17 m (AMSL)

Popular Alternatives